Portada
METAR-TAF:

METAR-TAF

Aeroports :

Jubail, Aràbia Saudita

latitud: 27-02-20N, longitud: 49-24-18E, altitud: 8 m

Observació

L'informe es va fer fa 1 hora i 17 minuts, a les 22:00 UTC
Vent 7 kt del Nord/Nord-Oest
Temperatura 16°C
Humitat 94%
Pressió 1014 hPa
Visibilitat 10 km o més
sense núvols per sota de 1500 mi sense presència de cumulonimbus.

METAR: OEJB 012200Z AUTO 33007KT CAVOK 16/15 Q1014 NOSIG

Hora: 02:17 (23:17 UTC)


TAF: manca

Observacions i pronòstics meteorològics de més de 4000 aeroports (METAR i TAF).

Les estacions disponibles són els punts grocs i vermells al mapa.

Posi el ratolí al punt desitjat per veure el nom de l'estació.

Feu clic per veure les observacions i els pronòstics meteorològics.

Per canviar el mapa: feu clic els botons verds amb una creu de color negre per apropar; al botó verd amb un guió per allunyar la imatge; o en les fletxes verdes per a mapes adjacents.


METAR-TAF: